Time;durP1;ratioP1;P1;durP2;ratioP2;P2;SDS_P1;SDS_P2;PMS_P1;PMS_P2;Temp;Humidity;BMP_temperature;BMP_pressure;BME280_temperature;BME280_humidity;BME280_pressure;Samples;Min_cycle;Max_cycle;Signal;HPM_P1;HPM_P2
2023/04/26 00:01:34;;;;;;;9.50;2.22;;;;;;;6.07;64.72;100110.84;5061145;28;20127;-81
2023/04/26 00:04:00;;;;;;;9.32;3.50;;;;;;;6.21;64.52;100116.09;5061041;28;20072;-81
2023/04/26 00:06:26;;;;;;;7.13;2.67;;;;;;;6.30;63.53;100104.72;5060659;28;20035;-82
2023/04/26 00:08:51;;;;;;;9.25;2.85;;;;;;;6.31;64.27;100108.25;5059630;28;20578;-82
2023/04/26 00:11:16;;;;;;;8.18;2.70;;;;;;;6.40;63.72;100109.63;5061800;28;20105;-82
2023/04/26 00:13:41;;;;;;;6.77;2.83;;;;;;;6.29;63.77;100104.94;5061289;28;21228;-81
2023/04/26 00:16:07;;;;;;;5.25;2.67;;;;;;;6.34;64.13;100115.94;5060348;28;20263;-81
2023/04/26 00:18:32;;;;;;;6.00;2.50;;;;;;;6.34;63.88;100110.53;5059532;28;20401;-80
2023/04/26 00:20:57;;;;;;;12.35;2.33;;;;;;;6.37;64.05;100110.06;5061132;28;20070;-81
2023/04/26 00:23:23;;;;;;;8.80;3.80;;;;;;;6.31;64.14;100110.97;5059367;28;20032;-82
2023/04/26 00:25:48;;;;;;;9.32;3.10;;;;;;;6.27;64.09;100098.94;5060069;28;20264;-82
2023/04/26 00:28:13;;;;;;;5.53;3.43;;;;;;;6.24;64.57;100099.41;5059645;28;20063;-81
2023/04/26 00:30:41;;;;;;;10.75;3.45;;;;;;;6.26;64.11;100102.72;5061411;28;20266;-80
2023/04/26 00:33:06;;;;;;;8.88;2.85;;;;;;;6.17;64.24;100100.31;5060491;28;20059;-81
2023/04/26 00:35:31;;;;;;;8.77;3.15;;;;;;;6.24;64.87;100097.53;5059735;28;20490;-80
2023/04/26 00:37:56;;;;;;;9.10;2.90;;;;;;;6.04;65.00;100093.13;5059953;28;20041;-82
2023/04/26 00:40:22;;;;;;;6.03;2.23;;;;;;;5.93;65.27;100088.50;5059511;28;20334;-81
2023/04/26 00:42:47;;;;;;;11.15;3.78;;;;;;;5.78;65.80;100092.38;5059664;28;21149;-81
2023/04/26 00:45:12;;;;;;;9.00;2.60;;;;;;;5.85;64.95;100086.91;5058760;28;20041;-80
2023/04/26 00:47:37;;;;;;;6.93;3.00;;;;;;;5.61;65.62;100097.56;5058918;28;20809;-81
2023/04/26 00:50:05;;;;;;;10.87;3.53;;;;;;;5.54;65.86;100091.38;5059500;28;20029;-81
2023/04/26 00:52:31;;;;;;;7.30;2.70;;;;;;;5.37;66.45;100103.59;5059977;28;20262;-80
2023/04/26 00:54:56;;;;;;;8.10;3.10;;;;;;;5.49;66.15;100086.66;5059021;28;20036;-81
2023/04/26 00:57:22;;;;;;;11.10;3.33;;;;;;;5.43;66.27;100092.97;5059340;28;20039;-80
2023/04/26 00:59:47;;;;;;;9.32;3.42;;;;;;;5.20;67.42;100092.53;5059417;28;20034;-80
2023/04/26 01:02:13;;;;;;;6.63;2.70;;;;;;;5.27;66.70;100087.03;5062680;28;20115;-82
2023/04/26 01:04:40;;;;;;;10.10;3.20;;;;;;;5.08;67.63;100086.19;5058723;28;20063;-83
2023/04/26 01:07:06;;;;;;;10.93;3.10;;;;;;;5.19;67.37;100084.63;5059735;28;20053;-81
2023/04/26 01:09:31;;;;;;;10.70;3.70;;;;;;;5.19;67.72;100084.63;5058625;28;20060;-81
2023/04/26 01:11:57;;;;;;;9.32;3.72;;;;;;;5.07;68.25;100087.22;5060097;28;20038;-81
2023/04/26 01:14:23;;;;;;;6.75;3.08;;;;;;;5.05;67.66;100082.03;5056933;28;20029;-81
2023/04/26 01:16:49;;;;;;;6.57;3.20;;;;;;;4.92;68.50;100091.09;5060525;28;20032;-82
2023/04/26 01:19:15;;;;;;;13.20;3.20;;;;;;;5.02;68.29;100082.47;5059656;28;20040;-81
2023/04/26 01:21:41;;;;;;;8.48;3.45;;;;;;;5.20;67.14;100087.13;5058618;28;20198;-81
2023/04/26 01:24:11;;;;;;;9.20;3.95;;;;;;;4.94;68.10;100088.16;5059361;28;20029;-82
2023/04/26 01:26:43;;;;;;;7.32;2.35;;;;;;;4.85;69.49;100093.00;5058848;28;20024;-81
2023/04/26 01:29:19;;;;;;;9.93;3.75;;;;;;;4.92;68.23;100095.66;5059651;28;20027;-82
2023/04/26 01:31:45;;;;;;;11.20;4.53;;;;;;;4.89;68.92;100099.59;5058956;28;20030;-81
2023/04/26 01:34:11;;;;;;;9.63;3.70;;;;;;;5.02;69.17;100096.81;5058667;28;20485;-81
2023/04/26 01:36:36;;;;;;;9.52;3.58;;;;;;;5.20;68.13;100097.94;5058090;28;20032;-81
2023/04/26 01:39:02;;;;;;;10.57;4.22;;;;;;;5.01;68.75;100092.47;5059120;28;20059;-81
2023/04/26 01:41:28;;;;;;;18.05;4.45;;;;;;;5.21;67.65;100099.56;5058495;28;20044;-81
2023/04/26 01:43:54;;;;;;;10.05;3.60;;;;;;;5.12;68.02;100101.75;5059236;28;20036;-81
2023/04/26 01:46:21;;;;;;;9.30;3.50;;;;;;;4.97;68.97;100099.34;5059148;28;20048;-81
2023/04/26 01:48:46;;;;;;;10.45;3.85;;;;;;;5.10;68.63;100103.00;5058740;28;20035;-81
2023/04/26 01:51:12;;;;;;;21.88;4.18;;;;;;;5.22;67.84;100098.53;5058887;28;20040;-81
2023/04/26 01:53:37;;;;;;;8.63;2.88;;;;;;;5.19;67.50;100090.84;5058800;28;20041;-82
2023/04/26 01:56:02;;;;;;;12.63;4.15;;;;;;;5.11;67.41;100091.97;5059446;28;20040;-82
2023/04/26 01:58:28;;;;;;;16.10;3.75;;;;;;;5.08;67.66;100094.28;5059217;28;20033;-82
2023/04/26 02:00:55;;;;;;;11.45;4.13;;;;;;;4.81;68.37;100102.56;5059218;28;20039;-81
2023/04/26 02:03:20;;;;;;;12.45;3.58;;;;;;;4.77;69.56;100094.09;5058644;28;20137;-82
2023/04/26 02:05:46;;;;;;;11.52;3.55;;;;;;;4.93;68.87;100098.13;5059054;28;20045;-82
2023/04/26 02:08:11;;;;;;;10.20;3.88;;;;;;;5.08;68.47;100097.00;5059061;28;20118;-82
2023/04/26 02:10:36;;;;;;;11.48;5.13;;;;;;;4.94;68.51;100105.19;5058899;28;20086;-82
2023/04/26 02:13:02;;;;;;;13.50;3.38;;;;;;;4.99;68.73;100099.97;5059163;28;20036;-81
2023/04/26 02:15:27;;;;;;;16.37;3.87;;;;;;;5.16;67.86;100093.19;5059334;28;20710;-82
2023/04/26 02:17:54;;;;;;;6.63;3.25;;;;;;;5.19;67.76;100100.84;5058732;28;20356;-81
2023/04/26 02:20:19;;;;;;;11.10;4.95;;;;;;;5.27;67.47;100091.66;5059171;28;20028;-82
2023/04/26 02:22:45;;;;;;;9.98;3.80;;;;;;;5.31;67.27;100092.88;5059011;28;20020;-81
2023/04/26 02:25:10;;;;;;;13.77;6.50;;;;;;;5.34;67.55;100097.81;5057605;28;20040;-81
2023/04/26 02:27:36;;;;;;;12.55;3.88;;;;;;;5.44;66.84;100108.13;5058930;28;20272;-81
2023/04/26 02:30:02;;;;;;;10.15;3.88;;;;;;;5.47;67.04;100100.38;5058629;28;20029;-81
2023/04/26 02:32:27;;;;;;;10.82;5.38;;;;;;;5.46;66.87;100100.63;5058584;28;20024;-81
2023/04/26 02:34:52;;;;;;;10.43;3.33;;;;;;;5.50;66.81;100099.13;5058889;28;20040;-83
2023/04/26 02:37:18;;;;;;;18.05;6.05;;;;;;;5.40;66.57;100102.34;5060258;28;20306;-80
2023/04/26 02:39:43;;;;;;;11.03;3.93;;;;;;;5.41;66.46;100098.56;5060669;28;20625;-81
2023/04/26 02:42:12;;;;;;;18.07;5.00;;;;;;;5.32;67.14;100099.91;5061712;28;20313;-81
2023/04/26 02:44:38;;;;;;;11.57;4.22;;;;;;;5.26;67.49;100090.81;5061559;28;20653;-81
2023/04/26 02:47:03;;;;;;;14.70;4.22;;;;;;;5.33;67.07;100094.28;5062033;28;20088;-82
2023/04/26 02:49:29;;;;;;;10.90;3.50;;;;;;;5.35;66.91;100088.66;5061785;28;20416;-82
2023/04/26 02:51:55;;;;;;;12.45;4.18;;;;;;;5.35;67.42;100081.34;5062155;28;20032;-81
2023/04/26 02:54:20;;;;;;;10.15;4.07;;;;;;;5.38;66.99;100088.22;5063646;28;20041;-81
2023/04/26 02:56:45;;;;;;;13.93;5.37;;;;;;;5.33;67.40;100088.06;5062186;28;20481;-82
2023/04/26 02:59:11;;;;;;;10.57;5.20;;;;;;;5.35;67.46;100086.75;5062180;28;20303;-81
2023/04/26 03:01:36;;;;;;;12.52;3.75;;;;;;;5.48;66.66;100085.81;5062566;28;20319;-81
2023/04/26 03:04:01;;;;;;;10.07;3.77;;;;;;;5.55;66.52;100090.34;5061702;28;21134;-81
2023/04/26 03:06:27;;;;;;;10.63;3.00;;;;;;;5.53;66.83;100081.63;5059597;28;20276;-81
2023/04/26 03:08:52;;;;;;;8.02;3.75;;;;;;;5.49;66.40;100084.75;5061354;28;20040;-81
2023/04/26 03:11:18;;;;;;;14.88;4.18;;;;;;;5.47;66.48;100086.06;5062834;28;20058;-81
2023/04/26 03:13:43;;;;;;;13.52;4.72;;;;;;;5.43;66.89;100088.34;5061740;28;20086;-81
2023/04/26 03:16:08;;;;;;;10.93;3.78;;;;;;;5.37;66.85;100083.84;5061420;28;20071;-82
2023/04/26 03:18:33;;;;;;;17.77;4.85;;;;;;;5.22;67.11;100081.47;5062553;28;20040;-82
2023/04/26 03:20:59;;;;;;;10.88;5.45;;;;;;;5.28;67.63;100083.31;5061868;28;20028;-81
2023/04/26 03:23:24;;;;;;;11.93;4.75;;;;;;;5.34;66.95;100077.00;5061540;28;20060;-81
2023/04/26 03:25:50;;;;;;;12.50;4.53;;;;;;;5.35;66.95;100088.66;5059659;28;20036;-81
2023/04/26 03:28:16;;;;;;;9.02;4.53;;;;;;;5.34;67.08;100085.13;5091201;28;20044;-81
2023/04/26 03:30:41;;;;;;;10.10;5.05;;;;;;;5.40;66.80;100086.09;5061772;28;20036;-80
2023/04/26 03:33:06;;;;;;;12.88;5.32;;;;;;;5.37;67.05;100081.13;5062354;28;20029;-81
2023/04/26 03:35:31;;;;;;;13.43;5.95;;;;;;;5.30;67.38;100075.81;5060919;28;20032;-81
2023/04/26 03:37:57;;;;;;;10.38;4.20;;;;;;;5.25;67.42;100076.47;5061207;28;20061;-81
2023/04/26 03:40:22;;;;;;;12.90;5.23;;;;;;;5.24;67.83;100071.28;5061728;28;20048;-81
2023/04/26 03:42:47;;;;;;;10.70;4.93;;;;;;;5.26;67.59;100080.00;5061040;28;20257;-81
2023/04/26 03:45:12;;;;;;;14.25;4.63;;;;;;;5.15;68.08;100076.13;5061683;28;20035;-81
2023/04/26 03:47:38;;;;;;;14.67;5.83;;;;;;;5.00;68.27;100074.56;5062075;28;20078;-81
2023/04/26 03:50:03;;;;;;;14.57;5.15;;;;;;;4.85;68.58;100074.91;5061223;28;20250;-81
2023/04/26 03:52:29;;;;;;;15.63;6.00;;;;;;;4.82;69.18;100069.94;5060683;28;20038;-81
2023/04/26 03:54:54;;;;;;;13.70;5.97;;;;;;;4.93;68.39;100076.50;5061173;28;20032;-82
2023/04/26 03:57:19;;;;;;;23.17;6.50;;;;;;;4.69;69.54;100073.56;5058962;28;20055;-81
2023/04/26 03:59:44;;;;;;;19.83;7.10;;;;;;;4.62;69.70;100073.59;5061417;28;20401;-81
2023/04/26 04:02:10;;;;;;;11.68;5.68;;;;;;;4.73;69.46;100069.38;5061009;28;20040;-82
2023/04/26 04:04:36;;;;;;;17.35;6.95;;;;;;;4.86;69.18;100075.75;5061100;28;20068;-80
2023/04/26 04:07:01;;;;;;;15.73;7.28;;;;;;;4.88;69.17;100073.66;5061476;28;20104;-81
2023/04/26 04:09:26;;;;;;;19.08;7.28;;;;;;;5.01;68.82;100075.41;5060625;28;20055;-81
2023/04/26 04:11:51;;;;;;;14.67;6.43;;;;;;;5.04;67.85;100072.28;5059993;28;20703;-81
2023/04/26 04:14:17;;;;;;;15.68;6.47;;;;;;;5.05;68.29;100071.22;5061024;28;20303;-81
2023/04/26 04:16:42;;;;;;;12.32;5.03;;;;;;;5.02;68.58;100069.78;5059323;28;20039;-82
2023/04/26 04:19:07;;;;;;;18.60;7.88;;;;;;;5.03;68.80;100070.63;5059735;28;20060;-81
2023/04/26 04:21:33;;;;;;;15.73;7.88;;;;;;;5.03;68.16;100081.41;5059997;28;20443;-81
2023/04/26 04:23:58;;;;;;;13.98;7.18;;;;;;;4.86;68.87;100075.75;5060258;28;20646;-81
2023/04/26 04:26:24;;;;;;;23.65;8.68;;;;;;;4.98;68.87;100076.66;5061418;28;20028;-82
2023/04/26 04:28:50;;;;;;;14.00;7.20;;;;;;;5.08;68.75;100078.06;5060750;28;20055;-81
2023/04/26 04:31:16;;;;;;;22.13;8.38;;;;;;;5.18;68.50;100078.41;5060084;28;20112;-81
2023/04/26 04:33:41;;;;;;;14.98;6.95;;;;;;;5.24;67.90;100077.53;5060295;28;20099;-81
2023/04/26 04:36:07;;;;;;;14.65;7.07;;;;;;;5.25;68.33;100084.56;5060276;28;20416;-80
2023/04/26 04:38:32;;;;;;;21.70;7.82;;;;;;;5.19;68.38;100082.75;5060271;28;20027;-81
2023/04/26 04:40:58;;;;;;;13.27;5.95;;;;;;;5.32;68.33;100083.69;5058548;28;20056;-81
2023/04/26 04:43:23;;;;;;;17.65;7.32;;;;;;;5.38;67.55;100088.22;5060677;28;20033;-81
2023/04/26 04:45:48;;;;;;;16.67;7.13;;;;;;;5.40;67.77;100091.53;5059159;28;20029;-82
2023/04/26 04:48:17;;;;;;;17.95;8.02;;;;;;;5.41;67.92;100082.34;5059831;28;20709;-81
2023/04/26 04:50:42;;;;;;;14.35;6.88;;;;;;;5.47;67.86;100092.28;5059228;28;20090;-81
2023/04/26 04:53:08;;;;;;;14.90;7.68;;;;;;;5.49;67.83;100090.16;5058723;28;20738;-81
2023/04/26 04:55:35;;;;;;;23.23;7.63;;;;;;;5.50;68.17;100096.41;5058562;28;20048;-83
2023/04/26 04:58:02;;;;;;;17.60;7.47;;;;;;;5.47;68.12;100097.69;5059009;28;20052;-81
2023/04/26 05:00:28;;;;;;;16.25;7.65;;;;;;;5.67;67.65;100091.28;5059807;28;20039;-82
2023/04/26 05:02:53;;;;;;;17.10;9.48;;;;;;;5.79;67.24;100095.94;5060633;28;20020;-81
2023/04/26 05:05:19;;;;;;;18.33;9.20;;;;;;;5.77;67.10;100101.56;5058767;28;20054;-81
2023/04/26 05:07:44;;;;;;;25.48;6.85;;;;;;;5.70;67.21;100098.94;5060873;28;20715;-81
2023/04/26 05:10:10;;;;;;;22.17;8.13;;;;;;;5.71;67.19;100095.19;5058797;28;20037;-81
2023/04/26 05:12:35;;;;;;;15.80;7.32;;;;;;;5.80;67.16;100100.28;5058531;28;21430;-81
2023/04/26 05:15:01;;;;;;;33.00;8.93;;;;;;;5.77;66.95;100103.44;5059834;28;20029;-82
2023/04/26 05:17:26;;;;;;;21.95;8.32;;;;;;;5.91;67.35;100102.25;5059809;28;20036;-83
2023/04/26 05:19:51;;;;;;;16.95;8.23;;;;;;;5.90;67.11;100111.41;5059618;28;20456;-82
2023/04/26 05:22:17;;;;;;;15.60;7.53;;;;;;;5.89;66.76;100109.78;5058793;28;20033;-81
2023/04/26 05:24:46;;;;;;;20.02;7.80;;;;;;;6.00;66.84;100110.06;5057565;28;20043;-81
2023/04/26 05:27:12;;;;;;;21.27;8.02;;;;;;;5.98;66.78;100114.88;5056899;28;20036;-81
2023/04/26 05:29:37;;;;;;;30.90;9.25;;;;;;;5.95;66.66;100126.97;5057434;28;20058;-82
2023/04/26 05:32:02;;;;;;;17.92;8.57;;;;;;;5.84;66.99;100115.00;5059349;28;20053;-81
2023/04/26 05:34:28;;;;;;;21.33;8.15;;;;;;;5.86;67.35;100125.63;5059713;28;20037;-81
2023/04/26 05:36:53;;;;;;;19.33;8.50;;;;;;;5.83;66.84;100132.31;5058165;28;20035;-81
2023/04/26 05:39:19;;;;;;;22.70;9.25;;;;;;;6.03;66.75;100128.56;5059664;28;20052;-83
2023/04/26 05:41:44;;;;;;;22.67;9.70;;;;;;;6.11;66.80;100139.13;5058909;28;20136;-82
2023/04/26 05:44:10;;;;;;;25.23;8.10;;;;;;;6.16;66.62;100136.56;5057499;28;20036;-81
2023/04/26 05:46:35;;;;;;;19.20;8.53;;;;;;;6.23;66.11;100130.22;5058145;28;20581;-82
2023/04/26 05:49:00;;;;;;;22.43;8.60;;;;;;;6.14;66.28;100138.66;5057855;28;20258;-81
2023/04/26 05:51:26;;;;;;;36.03;9.10;;;;;;;6.18;66.44;100139.84;5059091;28;20269;-81
2023/04/26 05:53:52;;;;;;;13.10;7.15;;;;;;;6.29;65.97;100134.75;5058883;28;20289;-81
2023/04/26 05:56:17;;;;;;;30.00;9.88;;;;;;;6.19;66.72;100138.00;5058447;28;20067;-81
2023/04/26 05:58:42;;;;;;;25.48;8.55;;;;;;;6.19;66.73;100143.41;5058572;28;20571;-81
2023/04/26 06:01:07;;;;;;;22.90;8.10;;;;;;;6.29;66.71;100142.88;5058282;28;20028;-81
2023/04/26 06:03:33;;;;;;;27.67;10.23;;;;;;;6.38;66.35;100140.69;5058727;28;20033;-81
2023/04/26 06:05:58;;;;;;;18.53;6.73;;;;;;;6.34;66.02;100145.75;5058957;28;20033;-82
2023/04/26 06:08:23;;;;;;;15.23;7.38;;;;;;;6.46;66.23;100144.97;5058737;28;20262;-82
2023/04/26 06:10:49;;;;;;;19.70;10.65;;;;;;;6.53;66.31;100151.94;5061175;28;20033;-81
2023/04/26 06:13:14;;;;;;;17.13;8.13;;;;;;;6.72;66.26;100151.09;5062766;28;20080;-81
2023/04/26 06:15:40;;;;;;;18.45;9.30;;;;;;;6.74;65.80;100151.69;5062741;28;20052;-83
2023/04/26 06:18:06;;;;;;;17.90;7.13;;;;;;;6.81;65.57;100157.03;5061528;28;20120;-81
2023/04/26 06:20:31;;;;;;;14.68;6.45;;;;;;;6.80;65.54;100145.34;5062045;28;20039;-81
2023/04/26 06:22:57;;;;;;;14.52;6.20;;;;;;;6.88;65.11;100152.31;5062806;28;20025;-82
2023/04/26 06:25:22;;;;;;;15.67;7.47;;;;;;;6.94;65.25;100153.28;5062084;28;20089;-81
2023/04/26 06:27:47;;;;;;;26.30;6.93;;;;;;;6.79;65.60;100154.53;5060935;28;20319;-80
2023/04/26 06:30:13;;;;;;;18.20;8.57;;;;;;;6.89;64.74;100171.06;5061319;28;20351;-79
2023/04/26 06:32:39;;;;;;;16.88;7.32;;;;;;;7.03;65.13;100165.47;5061728;28;20096;-79
2023/04/26 06:35:05;;;;;;;16.20;8.07;;;;;;;7.09;64.74;100163.72;5061744;28;20029;-79
2023/04/26 06:37:31;;;;;;;18.05;6.25;;;;;;;7.09;64.82;100158.28;5062799;28;20110;-80
2023/04/26 06:39:56;;;;;;;18.15;8.45;;;;;;;7.14;64.69;100161.13;5062108;28;20056;-81
2023/04/26 06:42:21;;;;;;;15.68;6.75;;;;;;;7.02;64.88;100163.00;5061831;28;20031;-80
2023/04/26 06:44:47;;;;;;;23.50;8.68;;;;;;;7.09;64.59;100171.84;5061015;28;20483;-79
2023/04/26 06:47:13;;;;;;;18.08;6.68;;;;;;;7.03;65.60;100170.88;5062114;28;20532;-80
2023/04/26 06:49:38;;;;;;;20.52;7.07;;;;;;;7.12;65.23;100164.06;5062261;28;20729;-80
2023/04/26 06:52:05;;;;;;;20.95;8.18;;;;;;;7.17;64.64;100178.81;5062718;28;20020;-80
2023/04/26 06:54:31;;;;;;;13.70;5.63;;;;;;;7.23;65.33;100181.44;5062607;28;20089;-79
2023/04/26 06:56:57;;;;;;;17.25;7.88;;;;;;;7.12;65.85;100172.19;5060976;28;20032;-79
2023/04/26 06:59:22;;;;;;;14.57;8.90;;;;;;;7.36;65.45;100171.44;5061186;28;20032;-80
2023/04/26 07:01:47;;;;;;;14.10;6.85;;;;;;;7.31;65.48;100169.41;5061833;28;20040;-79
2023/04/26 07:04:13;;;;;;;16.45;7.68;;;;;;;7.30;65.63;100165.03;5062883;28;20048;-79
2023/04/26 07:06:39;;;;;;;10.88;4.95;;;;;;;7.26;65.03;100158.44;5061978;28;20041;-80
2023/04/26 07:09:04;;;;;;;13.90;5.90;;;;;;;7.57;64.39;100164.63;5061690;28;20025;-80
2023/04/26 07:11:30;;;;;;;15.25;6.70;;;;;;;7.47;64.81;100175.22;5060433;28;20028;-80
2023/04/26 07:13:56;;;;;;;17.05;6.03;;;;;;;7.32;64.93;100168.34;5062704;28;20040;-79
2023/04/26 07:16:22;;;;;;;11.73;5.25;;;;;;;7.56;64.21;100171.13;5061254;28;20036;-79
2023/04/26 07:18:47;;;;;;;11.27;4.75;;;;;;;7.62;64.32;100158.50;5062684;28;20013;-79
2023/04/26 07:21:13;;;;;;;11.73;5.60;;;;;;;7.66;63.87;100162.38;5063147;28;20032;-80
2023/04/26 07:23:39;;;;;;;14.25;4.72;;;;;;;7.74;63.84;100166.63;5062636;28;20035;-79
2023/04/26 07:26:04;;;;;;;13.70;4.40;;;;;;;7.89;63.18;100159.91;5062156;28;20528;-80
2023/04/26 07:28:30;;;;;;;12.10;4.50;;;;;;;7.71;63.01;100161.66;5063216;28;20032;-79
2023/04/26 07:30:56;;;;;;;8.93;4.10;;;;;;;7.67;63.22;100160.47;5061067;28;20038;-79
2023/04/26 07:33:21;;;;;;;11.20;4.65;;;;;;;7.59;63.55;100165.19;5061425;28;20116;-79
2023/04/26 07:35:57;;;;;;;34.83;7.83;;;;;;;7.66;62.41;100166.97;5061958;28;20059;-79
2023/04/26 07:38:23;;;;;;;9.52;3.00;;;;;;;7.62;62.91;100172.06;5061758;28;20282;-79
2023/04/26 07:40:49;;;;;;;12.07;3.65;;;;;;;7.79;61.75;100164.03;5060464;28;20048;-79
2023/04/26 07:43:15;;;;;;;10.50;3.17;;;;;;;7.97;61.31;100151.41;5062344;28;20032;-80
2023/04/26 07:45:41;;;;;;;11.13;3.03;;;;;;;8.12;60.92;100159.03;5060360;28;20036;-81
2023/04/26 07:48:06;;;;;;;6.43;2.53;;;;;;;8.18;60.32;100154.53;5061553;28;20037;-79
2023/04/26 07:50:31;;;;;;;10.13;3.05;;;;;;;8.15;60.54;100158.59;5060197;28;20033;-79
2023/04/26 07:52:57;;;;;;;10.70;3.93;;;;;;;8.40;60.64;100159.34;5061147;28;20081;-79
2023/04/26 07:55:22;;;;;;;10.93;3.20;;;;;;;8.43;58.02;100163.47;5061360;28;20262;-81
2023/04/26 07:57:47;;;;;;;7.63;2.63;;;;;;;8.36;57.30;100155.47;5061061;28;20277;-81
2023/04/26 08:00:15;;;;;;;9.82;4.45;;;;;;;8.67;57.71;100160.69;5060900;28;20040;-79
2023/04/26 08:02:41;;;;;;;6.03;2.70;;;;;;;8.64;56.43;100156.59;5061160;28;20098;-79
2023/04/26 08:05:06;;;;;;;12.82;3.90;;;;;;;8.82;56.78;100152.84;5061028;28;20485;-80
2023/04/26 08:07:32;;;;;;;7.00;3.08;;;;;;;8.70;56.51;100152.91;5059965;28;20056;-79
2023/04/26 08:09:57;;;;;;;13.20;4.18;;;;;;;8.50;55.52;100156.81;5061693;28;20082;-79
2023/04/26 08:12:22;;;;;;;8.73;2.08;;;;;;;8.34;54.54;100150.25;5060390;28;20095;-79
2023/04/26 08:14:47;;;;;;;10.65;4.30;;;;;;;8.50;55.21;100151.38;5060795;28;20777;-80
2023/04/26 08:17:13;;;;;;;12.33;2.30;;;;;;;8.63;54.66;100157.63;5060513;28;20032;-79
2023/04/26 08:19:38;;;;;;;12.77;3.15;;;;;;;8.80;53.97;100151.44;5060385;28;20746;-80
2023/04/26 08:22:04;;;;;;;4.32;1.85;;;;;;;8.93;54.52;100148.41;5060285;28;20037;-80
2023/04/26 08:24:30;;;;;;;8.98;2.83;;;;;;;9.06;54.79;100143.72;5061313;28;20043;-81
2023/04/26 08:26:57;;;;;;;11.43;2.83;;;;;;;9.18;54.40;100147.22;5060079;28;20036;-79
2023/04/26 08:29:22;;;;;;;7.55;2.72;;;;;;;9.10;53.28;100150.34;5060806;28;20525;-80
2023/04/26 08:31:47;;;;;;;6.30;2.50;;;;;;;9.09;53.67;100152.22;5060728;28;20032;-80
2023/04/26 08:34:13;;;;;;;9.53;3.13;;;;;;;8.93;54.34;100148.41;5058479;28;20677;-79
2023/04/26 08:36:40;;;;;;;9.48;4.00;;;;;;;9.20;54.37;100150.50;5059623;28;20257;-80
2023/04/26 08:39:05;;;;;;;14.63;3.90;;;;;;;9.42;53.26;100152.50;5058491;28;20020;-80
2023/04/26 08:41:35;;;;;;;10.02;2.80;;;;;;;9.24;53.08;100153.56;5059151;28;20382;-80
2023/04/26 08:44:04;;;;;;;13.43;4.03;;;;;;;8.81;52.75;100163.94;5059890;28;20427;-79
2023/04/26 08:46:52;;;;;;;6.40;3.47;;;;;;;9.04;53.15;100162.19;5059280;28;20042;-81
2023/04/26 08:49:38;;;;;;;7.80;2.63;;;;;;;9.12;52.16;100153.63;5038298;28;20047;-79
2023/04/26 08:52:08;;;;;;;7.13;1.95;;;;;;;9.20;51.32;100152.41;5060452;28;20081;-81
2023/04/26 08:54:34;;;;;;;9.70;3.72;;;;;;;9.27;51.40;100149.53;5060245;28;20032;-80
2023/04/26 08:57:00;;;;;;;5.22;2.10;;;;;;;9.58;51.15;100141.84;5058889;28;20035;-80
2023/04/26 08:59:26;;;;;;;5.82;2.97;;;;;;;9.83;51.26;100140.56;5058235;28;20525;-80
2023/04/26 09:01:52;;;;;;;4.90;2.45;;;;;;;9.83;49.69;100148.75;5060402;28;20032;-79
2023/04/26 09:04:17;;;;;;;4.68;2.28;;;;;;;9.94;49.45;100152.44;5059436;28;20032;-80
2023/04/26 09:06:43;;;;;;;10.05;2.97;;;;;;;9.97;49.64;100151.09;5059928;28;20028;-80
2023/04/26 09:09:12;;;;;;;7.25;2.40;;;;;;;10.16;50.08;100151.66;5060744;28;20564;-81
2023/04/26 09:11:54;;;;;;;9.75;2.28;;;;;;;10.12;47.46;100148.59;5059669;28;20032;-80
2023/04/26 09:14:20;;;;;;;9.10;2.40;;;;;;;10.04;49.04;100140.88;5059149;28;20039;-80
2023/04/26 09:16:45;;;;;;;12.45;2.67;;;;;;;10.01;48.11;100144.91;5059148;28;20028;-80
2023/04/26 09:19:10;;;;;;;4.73;1.70;;;;;;;10.05;48.02;100156.13;5058735;28;20205;-80
2023/04/26 09:21:45;;;;;;;8.60;1.90;;;;;;;10.23;47.78;100155.00;5059144;28;20250;-80
2023/04/26 09:24:12;;;;;;;9.02;3.88;;;;;;;10.37;47.87;100147.25;5058962;28;20323;-80
2023/04/26 09:26:37;;;;;;;5.75;1.77;;;;;;;10.34;48.49;100150.50;5058684;28;20654;-79
2023/04/26 09:29:17;;;;;;;7.53;2.53;;;;;;;10.11;45.94;100149.66;5059477;28;20052;-79
2023/04/26 09:31:45;;;;;;;7.22;1.73;;;;;;;10.00;47.72;100156.06;5059986;28;20063;-80
2023/04/26 09:34:12;;;;;;;5.13;2.38;;;;;;;10.50;47.56;100148.00;5059010;28;20099;-79
2023/04/26 09:36:55;;;;;;;6.75;2.20;;;;;;;10.74;47.48;100147.69;5058722;28;20060;-80
2023/04/26 09:39:47;;;;;;;8.48;2.17;;;;;;;10.83;46.32;100151.63;5059273;28;20154;-80
2023/04/26 09:42:16;;;;;;;11.65;2.67;;;;;;;10.82;46.64;100141.78;5056959;28;20055;-79
2023/04/26 09:44:42;;;;;;;7.28;2.08;;;;;;;10.62;45.97;100145.94;5058863;28;20039;-79
2023/04/26 09:47:10;;;;;;;5.83;2.03;;;;;;;10.28;45.64;100140.63;5058636;28;20021;-80
2023/04/26 09:49:47;;;;;;;6.90;2.55;;;;;;;10.12;45.07;100147.78;5059857;28;20998;-79
2023/04/26 09:52:14;;;;;;;7.63;1.85;;;;;;;10.16;46.01;100155.22;5059705;28;20029;-79
2023/04/26 09:54:43;;;;;;;5.68;2.80;;;;;;;9.84;46.22;100146.84;5058512;28;20063;-80
2023/04/26 09:57:09;;;;;;;8.75;2.60;;;;;;;9.79;47.27;100144.88;5058883;28;20039;-81
2023/04/26 09:59:40;;;;;;;8.68;4.30;;;;;;;9.46;48.35;100155.53;5058768;28;20113;-80
2023/04/26 10:02:12;;;;;;;8.25;3.28;;;;;;;9.44;49.37;100144.91;5059520;28;20121;-80
2023/04/26 10:04:38;;;;;;;9.40;2.85;;;;;;;9.49;49.77;100156.94;5059497;28;20059;-79
2023/04/26 10:07:04;;;;;;;7.97;4.28;;;;;;;9.73;48.59;100146.72;5059385;28;20032;-80
2023/04/26 10:09:30;;;;;;;6.95;3.80;;;;;;;9.88;48.51;100148.84;5059115;28;20033;-80
2023/04/26 10:11:57;;;;;;;22.17;5.30;;;;;;;10.03;48.95;100137.31;5059993;28;20478;-79
2023/04/26 10:14:22;;;;;;;6.88;3.90;;;;;;;10.09;46.91;100137.41;5058425;28;20079;-77
2023/04/26 10:16:48;;;;;;;10.77;4.32;;;;;;;10.12;48.01;100135.00;5057883;28;20120;-79
2023/04/26 10:19:14;;;;;;;7.75;3.97;;;;;;;10.49;47.16;100135.47;5057108;28;20063;-81
2023/04/26 10:21:42;;;;;;;6.68;3.70;;;;;;;10.74;46.73;100137.63;5058064;28;20063;-80
2023/04/26 10:24:08;;;;;;;11.50;5.13;;;;;;;11.01;46.11;100141.44;5057191;28;20411;-80
2023/04/26 10:26:51;;;;;;;6.20;3.05;;;;;;;10.86;45.64;100133.94;5055949;28;20051;-80
2023/04/26 10:29:17;;;;;;;7.40;3.67;;;;;;;11.26;45.51;100131.00;5057707;28;20165;-80
2023/04/26 10:32:00;;;;;;;9.38;3.28;;;;;;;11.13;43.50;100133.06;5057990;28;20572;-80
2023/04/26 10:34:26;;;;;;;11.57;4.30;;;;;;;10.94;44.27;100129.91;5057936;28;20923;-79
2023/04/26 10:37:07;;;;;;;7.22;2.80;;;;;;;11.05;42.83;100131.66;5058602;28;20274;-80
2023/04/26 10:39:33;;;;;;;6.15;3.47;;;;;;;11.28;43.18;100135.13;5057612;28;20078;-80
2023/04/26 10:42:23;;;;;;;5.40;3.35;;;;;;;11.35;42.90;100120.44;5058765;28;20032;-81
2023/04/26 10:45:27;;;;;;;10.32;3.33;;;;;;;11.71;42.60;100125.31;5058160;28;20056;-80
2023/04/26 10:48:18;;;;;;;11.48;5.03;;;;;;;11.85;43.61;100122.94;5058715;28;20036;-81
2023/04/26 10:51:13;;;;;;;8.93;4.15;;;;;;;12.08;43.29;100112.69;5058272;28;20581;-80
2023/04/26 10:53:44;;;;;;;;;;;;;;;11.98;43.28;100113.47;5042221;28;20044;-80
2023/04/26 10:56:10;;;;;;;8.43;3.65;;;;;;;11.86;43.02;100116.38;5058366;28;19955;-80
2023/04/26 10:58:40;;;;;;;8.10;4.57;;;;;;;11.90;43.15;100117.50;5061001;28;20029;-80
2023/04/26 11:01:16;;;;;;;9.05;4.45;;;;;;;11.19;43.82;100114.84;5062815;28;20051;-80
2023/04/26 11:03:42;;;;;;;9.75;4.50;;;;;;;11.25;45.67;100113.78;5061959;28;21235;-80
2023/04/26 11:06:12;;;;;;;12.05;5.00;;;;;;;11.47;44.86;100123.78;5061943;28;20032;-80
2023/04/26 11:08:37;;;;;;;8.75;3.83;;;;;;;11.45;44.02;100117.78;5061910;28;20397;-80
2023/04/26 11:11:10;;;;;;;9.50;4.38;;;;;;;11.38;43.30;100118.00;5062013;28;20040;-80
2023/04/26 11:13:38;;;;;;;7.32;3.72;;;;;;;11.54;43.85;100116.19;5060807;28;20545;-81
2023/04/26 11:16:06;;;;;;;9.45;3.70;;;;;;;11.51;43.56;100111.25;5061288;28;20171;-81
2023/04/26 11:18:32;;;;;;;9.25;3.55;;;;;;;11.60;43.36;100113.50;5060723;28;20029;-80
2023/04/26 11:20:58;;;;;;;13.27;3.40;;;;;;;11.69;43.57;100109.19;5062134;28;20032;-80
2023/04/26 11:23:26;;;;;;;9.18;4.32;;;;;;;11.74;42.67;100114.69;5060649;28;20119;-79
2023/04/26 11:25:53;;;;;;;6.70;3.33;;;;;;;11.83;42.19;100116.91;5061285;28;20792;-80